createdAt,value
2023-03-16T00:08:26.147Z,34.64
2023-03-16T00:13:32.382Z,38.92
2023-03-16T00:18:38.502Z,32.85
2023-03-16T00:23:45.577Z,20.35
2023-03-16T00:28:51.764Z,34.64
2023-03-16T00:33:58.348Z,21.43
2023-03-16T00:39:04.617Z,22.14
2023-03-16T00:44:11.334Z,20.35
2023-03-16T00:49:17.454Z,36.07
2023-03-16T00:54:25.121Z,34.28
2023-03-16T00:59:37.753Z,25.00
2023-03-16T01:04:35.005Z,33.21
2023-03-16T01:09:42.070Z,30.00
2023-03-16T01:14:48.371Z,23.21
2023-03-16T01:19:54.998Z,20.00
2023-03-16T01:25:01.225Z,31.78
2023-03-16T01:30:07.984Z,25.71
2023-03-16T01:35:14.354Z,36.07
2023-03-16T01:40:20.978Z,26.43
2023-03-16T01:45:27.247Z,35.71
2023-03-16T01:50:34.344Z,35.00
2023-03-16T01:55:40.527Z,23.21
2023-03-16T02:00:47.977Z,29.28
2023-03-16T02:05:54.206Z,34.64
2023-03-16T02:11:00.874Z,23.57
2023-03-16T02:16:07.132Z,23.57
2023-03-16T02:21:13.874Z,25.00
2023-03-16T02:26:19.878Z,33.92
2023-03-16T02:31:28.515Z,36.42
2023-03-16T02:36:34.799Z,24.64
2023-03-16T02:41:42.664Z,21.78
2023-03-16T02:46:50.314Z,36.07
2023-03-16T02:51:56.765Z,33.57
2023-03-16T02:57:02.974Z,35.35
2023-03-16T03:02:11.287Z,39.64
2023-03-16T03:07:16.032Z,21.07
2023-03-16T03:12:25.706Z,34.64
2023-03-16T03:17:32.031Z,41.07
2023-03-16T03:22:38.715Z,26.07
2023-03-16T03:27:44.988Z,26.07
2023-03-16T03:32:52.562Z,21.07
2023-03-16T03:37:58.718Z,23.21
2023-03-16T03:43:05.019Z,40.00
2023-03-16T03:48:11.188Z,38.92
2023-03-16T03:53:17.638Z,32.50
2023-03-16T03:58:23.877Z,26.78
2023-03-16T04:03:30.543Z,36.42
2023-03-16T04:08:36.706Z,36.07
2023-03-16T04:13:43.457Z,24.28
2023-03-16T04:18:49.569Z,32.50
2023-03-16T04:23:56.184Z,24.64
2023-03-16T04:29:02.529Z,35.71
2023-03-16T04:34:10.257Z,35.35
2023-03-16T04:39:18.642Z,32.85
2023-03-16T04:44:25.276Z,31.07
2023-03-16T04:49:32.494Z,32.85
2023-03-16T04:54:39.126Z,45.35
2023-03-16T04:59:46.616Z,30.35
2023-03-16T05:04:53.313Z,38.21
2023-03-16T05:09:59.570Z,22.85
2023-03-16T05:15:06.249Z,32.85
2023-03-16T05:20:15.955Z,30.00
2023-03-16T05:25:19.624Z,20.35
2023-03-16T05:30:26.161Z,32.50
2023-03-16T05:35:31.857Z,32.14
2023-03-16T05:40:37.890Z,32.14
2023-03-16T05:45:44.121Z,20.71
2023-03-16T05:50:50.343Z,29.28
2023-03-16T05:55:57.992Z,25.71
2023-03-16T06:01:04.768Z,35.00
2023-03-16T06:06:11.140Z,40.35
2023-03-16T06:11:18.292Z,42.50
2023-03-16T06:16:24.765Z,53.92
2023-03-16T06:21:32.215Z,41.78
2023-03-16T06:26:38.321Z,33.57
2023-03-16T06:31:45.593Z,22.50
2023-03-16T06:36:53.113Z,34.28
2023-03-16T06:41:59.194Z,34.28
2023-03-16T06:47:05.983Z,32.14
2023-03-16T06:52:12.455Z,44.64
2023-03-16T06:57:18.814Z,30.35
2023-03-16T07:02:25.121Z,36.78
2023-03-16T07:07:31.765Z,21.07
2023-03-16T07:12:39.775Z,33.21
2023-03-16T07:17:46.311Z,35.71
2023-03-16T07:22:52.546Z,29.28
2023-03-16T07:27:59.066Z,17.86
2023-03-16T07:33:05.384Z,40.71
2023-03-16T07:38:12.805Z,35.00
2023-03-16T07:43:19.097Z,22.50
2023-03-16T07:48:25.646Z,29.64
2023-03-16T07:53:31.859Z,26.78
2023-03-16T07:58:38.543Z,36.42
2023-03-16T08:03:45.207Z,35.00
2023-03-16T08:08:51.773Z,35.35
2023-03-16T08:13:58.799Z,21.78
2023-03-16T08:19:05.173Z,20.71
2023-03-16T08:24:12.399Z,24.28
2023-03-16T08:29:19.875Z,21.07
2023-03-16T08:34:26.181Z,21.78
2023-03-16T08:39:32.781Z,20.71
2023-03-16T08:44:39.062Z,34.64
2023-03-16T08:49:45.399Z,21.07
2023-03-16T08:55:02.524Z,31.78
2023-03-16T08:59:57.626Z,17.50
2023-03-16T09:05:04.327Z,12.86
2023-03-16T09:10:10.626Z,20.71
2023-03-16T09:15:18.354Z,22.50
2023-03-16T09:20:34.577Z,32.50
2023-03-16T09:25:31.964Z,32.14
2023-03-16T09:30:38.246Z,25.71
2023-03-16T09:35:46.021Z,21.07
2023-03-16T09:40:52.114Z,20.35
2023-03-16T09:46:01.649Z,37.50
2023-03-16T09:51:07.872Z,17.86
2023-03-16T09:56:15.349Z,21.78
2023-03-16T10:01:21.449Z,21.78
2023-03-16T10:11:39.587Z,21.43
2023-03-16T10:16:36.150Z,8.21
2023-03-16T10:21:42.347Z,10.71
2023-03-16T10:26:49.767Z,12.50
2023-03-16T10:31:56.122Z,11.07
2023-03-16T10:37:01.979Z,21.07
2023-03-16T10:42:09.695Z,8.21
2023-03-16T10:47:14.985Z,16.35
2023-03-16T10:52:25.644Z,5.45
2023-03-16T10:57:21.934Z,5.36
2023-03-16T11:02:28.455Z,11.62
2023-03-16T11:07:34.566Z,17.50
2023-03-16T11:12:41.988Z,11.62
2023-03-16T11:17:48.865Z,2.86
2023-03-16T11:22:56.355Z,10.36
2023-03-16T11:28:06.360Z,5.71
2023-03-16T11:33:02.616Z,2.34
2023-03-16T11:38:08.870Z,4.29
2023-03-16T11:43:15.627Z,20.69
2023-03-16T11:48:21.841Z,2.22
2023-03-16T11:53:28.486Z,0.00
2023-03-16T11:58:34.749Z,0.00
2023-03-16T12:03:41.734Z,13.36
2023-03-16T12:08:49.578Z,3.21
2023-03-16T12:13:57.094Z,8.57
2023-03-16T12:19:03.587Z,4.64
2023-03-16T12:24:10.518Z,5.00
2023-03-16T12:29:16.743Z,1.07
2023-03-16T12:34:23.537Z,5.36
2023-03-16T12:39:29.864Z,2.14
2023-03-16T12:44:36.609Z,2.50
2023-03-16T12:49:42.877Z,0.36
2023-03-16T12:54:50.467Z,2.14
2023-03-16T12:59:56.614Z,2.50
2023-03-16T13:05:03.333Z,0.36
2023-03-16T13:10:09.986Z,6.78
2023-03-16T13:15:17.954Z,0.71
2023-03-16T13:20:30.320Z,0.71
2023-03-16T13:25:30.600Z,0.00
2023-03-16T13:30:36.907Z,0.00
2023-03-16T13:35:45.403Z,0.71
2023-03-16T13:40:52.802Z,1.07
2023-03-16T13:45:59.420Z,6.07
2023-03-16T13:51:05.693Z,0.00
2023-03-16T13:56:12.314Z,3.93
2023-03-16T14:01:18.507Z,4.64
2023-03-16T14:06:25.512Z,1.43
2023-03-16T14:11:31.644Z,0.36
2023-03-16T14:16:38.371Z,0.00
2023-03-16T14:21:50.721Z,10.00
2023-03-16T14:26:47.646Z,0.00
2023-03-16T14:31:54.106Z,0.00
2023-03-16T14:37:04.666Z,1.79
2023-03-16T14:42:01.094Z,9.64
2023-03-16T14:47:07.762Z,1.07
2023-03-16T14:52:14.680Z,0.36
2023-03-16T14:57:20.952Z,0.00
2023-03-16T15:02:27.593Z,0.71
2023-03-16T15:07:33.819Z,1.07
2023-03-16T15:12:40.345Z,0.00
2023-03-16T15:17:46.479Z,7.86
2023-03-16T15:22:54.215Z,1.79
2023-03-16T15:28:01.713Z,1.43
2023-03-16T15:33:08.366Z,0.71
2023-03-16T15:38:14.917Z,2.50
2023-03-16T15:43:21.511Z,0.00
2023-03-16T15:48:28.075Z,0.36
2023-03-16T15:53:35.869Z,8.93
2023-03-16T15:58:40.503Z,2.50
2023-03-16T16:03:48.147Z,0.00
2023-03-16T16:08:54.260Z,0.36
2023-03-16T16:14:01.159Z,0.00
2023-03-16T16:19:08.566Z,1.07
2023-03-16T16:24:15.198Z,5.36
2023-03-16T16:29:23.398Z,0.00
2023-03-16T16:34:30.219Z,0.71
2023-03-16T16:39:42.911Z,4.29
2023-03-16T16:44:39.359Z,5.00
2023-03-16T16:49:46.798Z,0.00
2023-03-16T16:54:59.268Z,5.93
2023-03-16T16:59:55.595Z,7.46
2023-03-16T17:05:02.039Z,3.83
2023-03-16T17:10:08.690Z,21.07
2023-03-16T17:15:15.050Z,6.43
2023-03-16T17:20:21.947Z,0.00
2023-03-16T17:25:28.600Z,7.15
2023-03-16T17:30:34.282Z,7.14
2023-03-16T17:35:40.486Z,11.07
2023-03-16T17:40:47.224Z,18.57
2023-03-16T17:45:53.560Z,2.91
2023-03-16T17:51:00.127Z,20.71
2023-03-16T17:56:06.342Z,2.86
2023-03-16T18:01:13.152Z,20.71
2023-03-16T18:06:26.021Z,11.43
2023-03-16T18:11:23.627Z,14.28
2023-03-16T18:16:30.036Z,2.14
2023-03-16T18:21:36.845Z,20.35
2023-03-16T18:26:43.322Z,18.21
2023-03-16T18:31:49.801Z,20.35
2023-03-16T18:36:56.137Z,12.50
2023-03-16T18:42:03.396Z,21.07
2023-03-16T18:47:09.924Z,17.14
2023-03-16T18:52:16.671Z,4.64
2023-03-16T18:57:22.982Z,23.93
2023-03-16T19:02:30.839Z,22.85
2023-03-16T19:07:38.227Z,15.36
2023-03-16T19:12:44.607Z,29.64
2023-03-16T19:17:52.132Z,16.43
2023-03-16T19:22:58.761Z,35.35
2023-03-16T19:28:05.157Z,17.86
2023-03-16T19:33:13.264Z,18.21
2023-03-16T19:38:19.480Z,20.71
2023-03-16T19:43:26.577Z,25.35
2023-03-16T19:48:32.990Z,26.07
2023-03-16T19:53:39.593Z,19.64
2023-03-16T19:58:46.051Z,9.64
2023-03-16T20:03:52.990Z,19.28
2023-03-16T20:08:58.668Z,21.07
2023-03-16T20:14:05.247Z,17.14
2023-03-16T20:19:11.542Z,23.21
2023-03-16T20:24:18.256Z,27.85
2023-03-16T20:29:24.630Z,30.71
2023-03-16T20:34:33.382Z,20.35
2023-03-16T20:39:40.644Z,10.00
2023-03-16T20:44:47.162Z,20.71
2023-03-16T20:49:54.907Z,21.43
2023-03-16T20:55:01.070Z,23.21
2023-03-16T21:00:08.783Z,30.00
2023-03-16T21:05:16.474Z,21.78
2023-03-16T21:10:23.563Z,21.07
2023-03-16T21:15:29.182Z,21.07
2023-03-16T21:20:36.520Z,21.07
2023-03-16T21:25:42.983Z,21.07
2023-03-16T21:30:50.534Z,20.71
2023-03-16T21:35:57.129Z,26.07
2023-03-16T21:41:03.602Z,32.14
2023-03-16T21:46:10.407Z,35.00
2023-03-16T21:51:16.493Z,36.42
2023-03-16T21:56:22.981Z,19.64
2023-03-16T22:01:30.716Z,21.07
2023-03-16T22:06:37.090Z,18.93
2023-03-16T22:11:43.591Z,22.14
2023-03-16T22:16:50.295Z,22.14
2023-03-16T22:21:56.753Z,21.07
2023-03-16T22:27:03.623Z,19.64
2023-03-16T22:32:09.963Z,31.78
2023-03-16T22:37:16.591Z,20.35
2023-03-16T22:42:23.042Z,21.78
2023-03-16T22:47:29.714Z,28.21
2023-03-16T22:52:35.843Z,21.07
2023-03-16T22:57:42.602Z,18.93
2023-03-16T23:02:49.190Z,28.93
2023-03-16T23:07:56.097Z,34.28
2023-03-16T23:13:04.556Z,20.71
2023-03-16T23:18:11.066Z,21.78
2023-03-16T23:23:18.605Z,23.93
2023-03-16T23:28:25.231Z,30.35
2023-03-16T23:34:42.909Z,27.74
2023-03-16T23:39:49.360Z,15.00
2023-03-16T23:44:55.790Z,22.14
2023-03-16T23:50:03.605Z,32.14
2023-03-16T23:55:10.805Z,32.50
